Time;durP1;ratioP1;P1;durP2;ratioP2;P2;SDS_P1;SDS_P2;PMS_P1;PMS_P2;Temp;Humidity;BMP_temperature;BMP_pressure;BME280_temperature;BME280_humidity;BME280_pressure;Samples;Min_cycle;Max_cycle;Signal;HPM_P1;HPM_P2
2022/11/13 00:00:07;;;;;;;9.73;4.10;;;11.00;99.90;;;11.33;100.00;100261.41;5153058;27;39043;-78
2022/11/13 00:02:55;;;;;;;8.48;4.30;;;10.90;99.90;;;11.26;100.00;100266.41;5168679;27;40334;-78
2022/11/13 00:05:42;;;;;;;9.90;4.38;;;10.90;99.90;;;11.38;100.00;100266.75;5168748;27;42025;-77
2022/11/13 00:08:29;;;;;;;7.85;3.95;;;10.90;99.90;;;11.30;100.00;100267.44;5153063;27;41051;-79
2022/11/13 00:11:19;;;;;;;10.68;4.60;;;10.90;99.90;;;11.36;100.00;100271.69;5147704;27;40973;-78
2022/11/13 00:14:06;;;;;;;14.90;4.40;;;10.80;99.90;;;11.34;100.00;100268.44;5147741;27;41144;-77
2022/11/13 00:16:53;;;;;;;9.90;4.97;;;10.80;99.90;;;11.26;100.00;100266.41;5147698;27;42593;-77
2022/11/13 00:19:42;;;;;;;9.07;4.78;;;10.70;99.90;;;11.07;100.00;100275.41;5147820;27;41059;-77
2022/11/13 00:22:29;;;;;;;8.00;4.55;;;10.60;99.90;;;11.07;100.00;100275.41;5147248;27;40188;-78
2022/11/13 00:25:17;;;;;;;9.73;4.40;;;10.70;99.90;;;11.08;100.00;100271.59;5147609;27;39745;-77
2022/11/13 00:28:04;;;;;;;9.02;5.22;;;10.60;99.90;;;11.00;100.00;100275.00;5147615;27;41993;-78
2022/11/13 00:30:50;;;;;;;7.68;4.57;;;10.70;99.90;;;10.91;100.00;100283.00;5147270;27;41099;-78
2022/11/13 00:33:37;;;;;;;9.48;4.78;;;10.70;99.90;;;10.95;100.00;100285.91;5147394;27;40701;-78
2022/11/13 00:36:28;;;;;;;9.13;5.03;;;10.70;99.90;;;10.97;100.00;100286.44;5147351;27;39700;-77
2022/11/13 00:39:15;;;;;;;10.38;4.70;;;10.70;99.90;;;10.94;100.00;100292.47;5148445;27;41800;-77
2022/11/13 00:42:02;;;;;;;10.10;4.55;;;10.80;99.90;;;10.95;100.00;100294.06;5131831;27;41608;-78
2022/11/13 00:44:49;;;;;;;9.63;4.22;;;10.80;99.90;;;10.93;100.00;100290.84;5147007;27;39890;-77
2022/11/13 00:47:36;;;;;;;8.15;4.70;;;10.80;99.90;;;11.02;100.00;100294.50;5147339;27;39593;-77
2022/11/13 00:50:22;;;;;;;9.23;4.85;;;10.80;99.90;;;10.99;100.00;100295.09;5147122;27;41778;-78
2022/11/13 00:53:11;;;;;;;11.27;4.95;;;10.80;99.90;;;10.95;100.00;100288.63;5146815;27;41314;-77
2022/11/13 00:55:59;;;;;;;11.50;4.88;;;10.80;99.90;;;11.07;100.00;100285.47;5146695;27;40298;-78
2022/11/13 00:58:46;;;;;;;11.73;4.53;;;10.80;99.90;;;11.07;100.00;100297.13;5146806;27;39873;-78
2022/11/13 01:01:33;;;;;;;8.40;4.70;;;10.80;99.90;;;11.07;100.00;100301.78;5146742;27;43019;-77
2022/11/13 01:04:20;;;;;;;7.03;4.47;;;10.80;99.90;;;11.02;100.00;100299.94;5146681;27;41168;-78
2022/11/13 01:07:07;;;;;;;;;;;10.80;99.90;;;11.01;100.00;100298.31;5131403;27;40010;-76
2022/11/13 01:09:55;;;;;;;7.90;4.22;;;10.80;99.90;;;11.17;100.00;100295.38;5131227;27;38282;-78
2022/11/13 01:12:42;;;;;;;9.88;4.68;;;10.80;99.90;;;11.19;100.00;100302.13;5148164;27;41586;-78
2022/11/13 01:15:29;;;;;;;9.55;4.43;;;10.80;99.90;;;11.12;100.00;100298.97;5150079;27;42263;-78
2022/11/13 01:18:16;;;;;;;9.13;4.05;;;10.80;99.90;;;11.16;100.00;100305.44;5149922;27;40562;-78
2022/11/13 01:21:06;;;;;;;9.13;4.47;;;10.80;99.90;;;11.13;100.00;100306.03;5150286;27;40278;-77
2022/11/13 01:23:53;;;;;;;8.38;3.95;;;10.80;99.90;;;11.23;100.00;100302.34;5150252;27;41762;-77
2022/11/13 01:26:41;;;;;;;10.00;3.53;;;10.80;99.90;;;11.28;100.00;100307.69;5149926;27;41416;-77
2022/11/13 01:29:29;;;;;;;8.15;4.30;;;10.80;99.90;;;11.27;100.00;100300.66;5150290;27;40657;-78
2022/11/13 01:32:16;;;;;;;11.23;4.13;;;10.90;99.90;;;11.39;100.00;100309.16;5150254;27;41264;-78
2022/11/13 01:35:03;;;;;;;8.98;4.07;;;10.90;99.90;;;11.46;100.00;100301.41;5149983;27;41867;-77
2022/11/13 01:37:50;;;;;;;;;;;10.90;99.90;;;11.50;100.00;100305.16;5150485;27;42381;-76
2022/11/13 01:40:37;;;;;;;8.80;3.80;;;10.90;99.90;;;11.58;100.00;100311.03;5129360;27;40864;-78
2022/11/13 01:43:28;;;;;;;9.20;3.88;;;10.90;99.90;;;11.52;100.00;100316.53;5129523;27;40732;-76
2022/11/13 01:46:29;;;;;;;8.25;3.63;;;10.90;99.90;;;11.57;100.00;100309.41;5129251;27;42227;-77
2022/11/13 01:49:30;;;;;;;8.38;3.65;;;10.90;99.90;;;11.58;100.00;100311.03;5143447;27;41186;-76
2022/11/13 01:52:21;;;;;;;10.02;4.22;;;10.90;99.90;;;11.50;100.00;100313.31;5149967;27;40192;-77
2022/11/13 01:55:13;;;;;;;9.00;3.42;;;10.90;99.90;;;11.54;100.00;100315.44;5149650;27;39921;-75
2022/11/13 01:58:01;;;;;;;9.77;4.18;;;10.90;99.90;;;11.57;100.00;100306.69;5149701;27;41915;-79
2022/11/13 02:00:50;;;;;;;7.97;3.78;;;10.90;99.90;;;11.56;100.00;100307.78;5134223;27;41830;-77
2022/11/13 02:03:37;;;;;;;7.30;4.05;;;10.90;99.90;;;11.63;100.00;100308.19;5149459;27;40238;-79
2022/11/13 02:06:27;;;;;;;9.23;3.85;;;11.00;99.90;;;11.62;100.00;100317.47;5149517;27;39882;-76
2022/11/13 02:09:16;;;;;;;10.50;3.45;;;11.00;99.90;;;11.77;100.00;100309.03;5149215;27;41948;-78
2022/11/13 02:12:04;;;;;;;9.25;3.83;;;11.00;99.90;;;11.71;100.00;100304.78;5149147;27;42249;-79
2022/11/13 02:14:55;;;;;;;8.68;3.40;;;11.00;99.90;;;11.77;100.00;100306.31;5149211;27;39976;-78
2022/11/13 02:17:48;;;;;;;7.95;3.10;;;11.00;99.90;;;11.63;100.00;100308.19;5149328;27;41373;-78
2022/11/13 02:20:47;;;;;;;8.18;3.78;;;11.00;99.90;;;11.51;100.00;100306.78;5149134;27;41952;-77
2022/11/13 02:23:43;;;;;;;11.20;4.28;;;11.00;99.90;;;11.49;100.00;100319.84;5148159;27;41386;-77
2022/11/13 02:26:33;;;;;;;8.93;4.03;;;11.00;99.90;;;11.59;100.00;100315.34;5133654;27;40711;-78
2022/11/13 02:29:20;;;;;;;11.05;3.92;;;11.00;99.90;;;11.46;100.00;100316.91;5149059;27;39945;-78
2022/11/13 02:32:07;;;;;;;7.17;2.87;;;11.00;99.90;;;11.49;100.00;100319.84;5148891;27;41775;-76
2022/11/13 02:34:54;;;;;;;5.10;2.70;;;11.00;99.90;;;11.42;100.00;100324.88;5149202;27;41145;-77
2022/11/13 02:37:41;;;;;;;9.00;4.05;;;11.00;97.20;;;11.41;100.00;100317.00;5148751;27;40121;-76
2022/11/13 02:40:30;;;;;;;6.88;3.42;;;11.00;90.40;;;11.47;100.00;100315.81;5148971;27;40994;-77
2022/11/13 02:43:18;;;;;;;7.85;3.10;;;11.00;90.10;;;11.62;100.00;100314.72;5133863;27;42099;-78
2022/11/13 02:46:05;;;;;;;6.35;3.50;;;11.00;90.00;;;11.31;100.00;100312.53;5149058;27;42046;-78
2022/11/13 02:48:52;;;;;;;8.63;3.13;;;11.10;62.90;;;11.26;100.00;100315.31;5133654;27;39752;-77
2022/11/13 02:51:40;;;;;;;7.18;3.58;;;11.10;62.20;;;11.27;100.00;100316.94;5149088;27;39873;-76
2022/11/13 02:54:26;;;;;;;9.32;3.58;;;11.10;59.70;;;11.37;100.00;100311.34;5148765;27;42673;-75
2022/11/13 02:57:13;;;;;;;8.63;3.50;;;11.00;65.60;;;11.52;100.00;100302.94;5148974;27;41173;-77
2022/11/13 03:00:02;;;;;;;4.95;3.17;;;11.00;67.00;;;11.43;100.00;100326.47;5148843;27;40127;-79
2022/11/13 03:02:49;;;;;;;14.70;3.95;;;11.10;48.10;;;11.31;100.00;100331.53;5148728;27;39576;-75
2022/11/13 03:05:36;;;;;;;8.07;3.15;;;11.10;27.60;;;11.33;100.00;100318.50;5148433;27;42591;-76
2022/11/13 03:08:24;;;;;;;8.85;3.45;;;11.10;29.50;;;11.27;100.00;100327.81;5133326;27;41342;-77
2022/11/13 03:11:12;;;;;;;7.57;3.05;;;11.10;26.80;;;11.29;100.00;100326.41;5148428;27;40291;-76
2022/11/13 03:13:59;;;;;;;7.90;3.42;;;11.10;17.50;;;11.25;100.00;100324.56;5148136;27;39881;-75
2022/11/13 03:16:48;;;;;;;7.43;3.05;;;11.00;20.00;;;11.35;100.00;100321.69;5148118;27;41849;-77
2022/11/13 03:19:35;;;;;;;6.68;2.65;;;11.00;24.70;;;11.33;100.00;100318.50;5147820;27;42163;-79
2022/11/13 03:22:22;;;;;;;7.07;2.53;;;11.00;27.90;;;11.28;100.00;100313.94;5147956;27;41063;-76
2022/11/13 03:25:09;;;;;;;4.93;2.65;;;11.00;34.30;;;11.25;100.00;100313.69;5151237;27;39865;-76
2022/11/13 03:27:56;;;;;;;10.10;3.00;;;11.00;39.40;;;11.15;100.00;100320.91;5148068;27;42578;-76
2022/11/13 03:30:43;;;;;;;6.93;3.10;;;10.90;46.10;;;11.10;100.00;100325.63;5132624;27;41649;-74
2022/11/13 03:33:32;;;;;;;5.20;2.97;;;10.90;39.70;;;11.06;100.00;100327.31;5148171;27;40190;-74
2022/11/13 03:36:19;;;;;;;6.43;3.22;;;10.90;29.50;;;11.04;100.00;100324.88;5148118;27;40771;-75
2022/11/13 03:39:06;;;;;;;7.85;3.38;;;10.90;25.30;;;10.97;100.00;100327.19;5149125;27;41902;-75
2022/11/13 03:41:53;;;;;;;10.32;3.25;;;10.90;24.30;;;10.93;100.00;100331.56;5148204;27;39404;-76
2022/11/13 03:44:40;;;;;;;8.25;3.72;;;10.80;23.30;;;11.03;100.00;100327.91;5148254;27;41540;-76
2022/11/13 03:47:27;;;;;;;8.20;3.10;;;10.80;25.70;;;10.99;100.00;100322.25;5148527;27;39473;-77
2022/11/13 03:50:16;;;;;;;7.07;4.03;;;10.80;27.70;;;10.97;100.00;100324.47;5148231;27;42682;-77
2022/11/13 03:53:03;;;;;;;8.93;3.55;;;10.80;32.10;;;11.00;100.00;100332.03;5148048;27;42166;-77
2022/11/13 03:55:50;;;;;;;6.35;3.10;;;10.80;36.80;;;11.01;100.00;100328.19;5147990;27;40233;-76
2022/11/13 03:58:37;;;;;;;8.30;3.47;;;10.70;41.80;;;11.07;100.00;100346.03;5147900;27;39999;-76
2022/11/13 04:01:24;;;;;;;6.55;3.15;;;10.70;44.50;;;11.13;100.00;100338.63;5147621;27;41736;-77
2022/11/13 04:04:11;;;;;;;6.38;2.92;;;10.70;47.30;;;10.95;100.00;100348.38;5147582;27;41263;-77
2022/11/13 04:06:59;;;;;;;6.18;3.08;;;10.70;46.40;;;10.87;100.00;100346.31;5147945;27;40926;-76
2022/11/13 04:09:47;;;;;;;8.27;3.63;;;10.70;43.90;;;10.89;100.00;100344.94;5148056;27;39900;-79
2022/11/13 04:12:34;;;;;;;;;;;10.70;41.50;;;10.87;100.00;100351.75;5132599;27;42537;-77
2022/11/13 04:15:21;;;;;;;6.68;3.90;;;10.70;42.10;;;10.94;100.00;100360.34;5150793;27;41262;-77
2022/11/13 04:18:08;;;;;;;11.02;4.32;;;10.60;42.50;;;10.76;100.00;100349.16;5147455;27;40088;-77
2022/11/13 04:21:00;;;;;;;7.63;3.22;;;10.60;42.30;;;10.76;100.00;100346.44;5132060;27;40524;-79
2022/11/13 04:23:48;;;;;;;6.47;3.03;;;10.60;28.50;;;10.69;100.00;100346.03;5147483;27;41953;-78
2022/11/13 04:26:35;;;;;;;8.43;3.22;;;10.60;23.20;;;10.67;100.00;100348.19;5147585;27;41273;-77
2022/11/13 04:29:22;;;;;;;8.00;3.30;;;10.50;26.70;;;10.68;100.00;100344.41;5147453;27;40132;-78
2022/11/13 04:32:09;;;;;;;7.70;3.35;;;10.40;30.90;;;10.71;100.00;100332.94;5147667;27;40727;-79
2022/11/13 04:34:56;;;;;;;10.43;4.07;;;10.30;47.60;;;10.55;100.00;100334.22;5147351;27;41612;-78
2022/11/13 04:37:43;;;;;;;8.48;3.55;;;10.20;64.00;;;10.42;100.00;100330.31;5147233;27;41110;-77
2022/11/13 04:40:31;;;;;;;8.02;3.80;;;10.10;78.10;;;10.26;100.00;100321.53;5111407;27;39810;-76
2022/11/13 04:43:17;;;;;;;7.97;3.42;;;10.00;89.40;;;10.00;100.00;100340.81;5126380;27;39631;-76
2022/11/13 04:46:04;;;;;;;13.20;3.75;;;10.00;90.10;;;10.11;100.00;100324.41;5126603;27;42796;-77
2022/11/13 04:48:51;;;;;;;7.55;3.92;;;10.00;89.40;;;10.00;100.00;100340.81;5125929;27;41011;-76
2022/11/13 04:51:38;;;;;;;8.05;3.90;;;10.00;89.40;;;9.95;100.00;100332.72;5126304;27;40184;-75
2022/11/13 04:54:25;;;;;;;8.68;3.85;;;10.00;89.30;;;9.85;100.00;100327.41;5126379;27;39864;-77
2022/11/13 04:57:14;;;;;;;8.27;4.00;;;9.90;90.10;;;9.90;100.00;100327.34;5126182;27;41681;-77
2022/11/13 05:00:02;;;;;;;7.35;3.67;;;9.90;90.10;;;9.89;100.00;100342.00;5129079;27;41311;-76
2022/11/13 05:02:49;;;;;;;;;;;9.80;90.10;;;9.96;100.00;100339.75;5126657;27;40176;-78
2022/11/13 05:05:35;;;;;;;8.20;3.72;;;9.80;90.00;;;9.96;100.00;100344.38;5126148;27;41208;-78
2022/11/13 05:08:22;;;;;;;9.73;4.15;;;9.70;94.40;;;9.92;100.00;100349.56;5110708;27;41175;-76
2022/11/13 05:11:09;;;;;;;8.07;3.75;;;9.70;98.10;;;9.90;100.00;100343.63;5110942;27;40554;-77
2022/11/13 05:13:58;;;;;;;7.25;3.78;;;9.80;94.90;;;9.84;100.00;100342.06;5126185;27;40814;-78
2022/11/13 05:16:45;;;;;;;7.22;3.88;;;9.60;99.90;;;9.76;100.00;100348.09;5126354;27;39909;-78
2022/11/13 05:19:33;;;;;;;9.20;4.15;;;9.60;99.90;;;9.75;100.00;100343.75;5126508;27;41729;-76
2022/11/13 05:22:20;;;;;;;9.52;4.07;;;9.60;99.90;;;9.73;100.00;100343.25;5125539;27;41404;-81
2022/11/13 05:25:08;;;;;;;11.38;4.50;;;9.60;99.90;;;9.61;100.00;100346.31;5126568;27;40415;-80
2022/11/13 05:27:58;;;;;;;8.32;4.00;;;9.50;99.90;;;9.61;100.00;100339.00;5125901;27;41186;-76
2022/11/13 05:30:46;;;;;;;9.68;4.00;;;9.50;99.90;;;9.61;100.00;100355.25;5125891;27;41858;-78
2022/11/13 05:33:34;;;;;;;9.45;4.47;;;9.50;99.90;;;9.58;100.00;100355.81;5125787;27;42245;-78
2022/11/13 05:36:22;;;;;;;11.75;4.93;;;9.40;99.90;;;9.52;100.00;100356.94;5125637;27;40996;-78
2022/11/13 05:39:09;;;;;;;11.70;4.82;;;9.40;99.90;;;9.59;100.00;100357.44;5137305;27;40764;-77
2022/11/13 05:41:56;;;;;;;10.68;4.70;;;9.40;99.90;;;9.52;100.00;100357.78;5146322;27;42413;-78
2022/11/13 05:44:43;;;;;;;11.45;5.18;;;9.40;99.90;;;9.51;100.00;100361.56;5146246;27;41034;-77
2022/11/13 05:47:33;;;;;;;11.48;4.75;;;9.40;99.90;;;9.53;100.00;100364.00;5146304;27;40277;-75
2022/11/13 05:50:21;;;;;;;14.93;4.57;;;9.30;99.90;;;9.68;100.00;100368.50;5130975;27;39342;-76
2022/11/13 05:53:08;;;;;;;15.23;6.03;;;9.40;99.90;;;9.78;100.00;100375.72;5145991;27;41534;-76
2022/11/13 05:55:55;;;;;;;11.70;6.65;;;9.40;99.90;;;9.86;100.00;100375.09;5146246;27;41800;-78
2022/11/13 05:58:42;;;;;;;11.98;6.38;;;9.50;99.90;;;9.91;100.00;100372.34;5148736;27;40898;-76
2022/11/13 06:01:33;;;;;;;12.02;5.30;;;9.50;99.90;;;9.80;100.00;100365.38;5139992;27;39316;-78
2022/11/13 06:04:22;;;;;;;8.95;4.90;;;9.40;99.90;;;9.61;100.00;100368.78;5155022;27;42290;-78
2022/11/13 06:07:09;;;;;;;12.30;4.82;;;9.40;99.90;;;9.65;100.00;100371.78;5154620;27;41069;-77
2022/11/13 06:09:55;;;;;;;9.73;4.55;;;9.40;99.90;;;9.78;100.00;100373.81;5155240;27;40293;-77
2022/11/13 06:12:42;;;;;;;8.82;5.30;;;9.50;99.90;;;9.82;100.00;100371.34;5150998;27;40022;-80
2022/11/13 06:15:29;;;;;;;13.10;5.30;;;9.50;99.90;;;9.80;100.00;100368.09;5149121;27;43490;-76
2022/11/13 06:18:20;;;;;;;12.75;6.07;;;9.50;99.90;;;9.75;100.00;100368.16;5149512;27;42357;-78
2022/11/13 06:21:14;;;;;;;11.40;5.57;;;9.60;99.90;;;9.71;100.00;100371.44;5149546;27;40766;-76
2022/11/13 06:24:02;;;;;;;10.35;5.68;;;9.60;99.90;;;9.80;100.00;100373.53;5149937;27;40886;-78
2022/11/13 06:26:49;;;;;;;12.70;5.57;;;9.60;99.90;;;9.91;100.00;100372.34;5149691;27;42385;-77
2022/11/13 06:29:36;;;;;;;10.38;5.65;;;9.60;99.90;;;9.95;100.00;100367.97;5149654;27;42252;-78
2022/11/13 06:32:22;;;;;;;14.38;6.57;;;9.60;99.90;;;9.90;100.00;100373.44;5149887;27;40281;-78
2022/11/13 06:35:10;;;;;;;11.98;6.35;;;9.60;99.90;;;9.92;100.00;100382.09;5149758;27;40803;-77
2022/11/13 06:37:59;;;;;;;13.55;6.32;;;9.60;99.90;;;9.89;100.00;100379.94;5149544;27;42725;-79
2022/11/13 06:40:46;;;;;;;12.77;5.93;;;9.60;99.90;;;9.92;100.00;100381.28;5113510;27;40618;-78
2022/11/13 06:43:33;;;;;;;13.85;7.13;;;9.60;99.90;;;9.94;100.00;100390.78;5128687;27;40984;-77
2022/11/13 06:46:23;;;;;;;10.90;6.65;;;9.70;99.90;;;10.00;100.00;100384.22;5129337;27;40919;-78
2022/11/13 06:49:10;;;;;;;11.02;5.55;;;9.70;99.90;;;10.07;100.00;100379.25;5128930;27;41939;-77
2022/11/13 06:51:57;;;;;;;11.38;5.78;;;9.70;99.90;;;10.30;100.00;100379.56;5128262;27;42095;-79
2022/11/13 06:54:46;;;;;;;12.90;5.70;;;9.80;99.90;;;10.31;100.00;100383.88;5128929;27;40906;-77
2022/11/13 06:57:32;;;;;;;11.80;5.88;;;9.80;99.90;;;10.45;100.00;100384.03;5128451;27;40623;-79
2022/11/13 07:00:20;;;;;;;11.60;5.40;;;9.80;99.90;;;10.41;100.00;100378.38;5128313;27;41874;-79
2022/11/13 07:03:15;;;;;;;13.15;6.13;;;9.70;99.90;;;10.63;100.00;100385.19;5128283;27;42266;-79
2022/11/13 07:06:04;;;;;;;12.45;5.68;;;9.80;99.90;;;10.70;100.00;100374.75;5127869;27;40079;-77
2022/11/13 07:08:52;;;;;;;13.90;6.18;;;10.00;99.90;;;10.97;100.00;100389.66;5127702;27;40185;-76
2022/11/13 07:11:40;;;;;;;;;;;10.00;99.90;;;11.01;100.00;100390.66;5127695;27;42723;-79
2022/11/13 07:14:27;;;;;;;11.95;5.38;;;10.10;99.90;;;10.73;100.00;100379.59;5127872;27;42375;-77
2022/11/13 07:17:14;;;;;;;8.55;5.03;;;10.20;99.90;;;11.01;100.00;100387.16;5112000;27;39656;-78
2022/11/13 07:20:01;;;;;;;10.80;4.68;;;10.30;99.90;;;11.07;100.00;100384.06;5127852;27;40107;-77
2022/11/13 07:22:48;;;;;;;12.30;4.82;;;10.30;99.90;;;11.00;100.00;100391.78;5127583;27;41901;-77
2022/11/13 07:25:35;;;;;;;11.38;5.35;;;10.40;99.90;;;10.95;100.00;100391.81;5126999;27;41615;-73
2022/11/13 07:28:24;;;;;;;13.02;4.82;;;10.40;99.90;;;10.94;100.00;100393.75;5127696;27;39819;-77
2022/11/13 07:31:12;;;;;;;7.88;4.40;;;10.30;99.90;;;11.05;100.00;100397.13;5127482;27;40166;-78
2022/11/13 07:33:59;;;;;;;9.38;4.40;;;10.40;99.90;;;10.98;100.00;100391.25;5127262;27;42724;-77
2022/11/13 07:36:46;;;;;;;10.95;4.47;;;10.40;99.30;;;10.97;100.00;100390.44;5127446;27;41454;-78
2022/11/13 07:39:33;;;;;;;7.72;4.35;;;10.40;93.30;;;11.04;100.00;100383.84;5142778;27;39951;-79
2022/11/13 07:42:20;;;;;;;12.95;4.72;;;10.50;91.70;;;11.03;100.00;100404.78;5148010;27;40259;-78
2022/11/13 07:45:09;;;;;;;13.82;4.95;;;10.50;90.10;;;11.45;100.00;100394.94;5148077;27;42031;-78
2022/11/13 07:48:00;;;;;;;10.90;4.20;;;10.60;90.00;;;11.47;100.00;100398.16;5147865;27;42273;-78
2022/11/13 07:50:47;;;;;;;9.80;4.20;;;10.60;89.90;;;11.48;100.00;100410.66;5147996;27;41175;-80
2022/11/13 07:53:34;;;;;;;6.57;3.80;;;10.70;78.70;;;11.32;100.00;100406.53;5148034;27;39848;-80
2022/11/13 07:56:24;;;;;;;6.88;3.65;;;10.70;65.90;;;11.49;100.00;100401.38;5132832;27;42043;-78
2022/11/13 07:59:11;;;;;;;9.23;3.95;;;10.80;50.10;;;11.55;100.00;100404.84;5147646;27;41401;-79
2022/11/13 08:01:59;;;;;;;9.02;3.42;;;10.80;46.10;;;11.67;100.00;100401.63;5147865;27;41176;-76
2022/11/13 08:04:46;;;;;;;8.57;3.55;;;10.80;41.20;;;11.61;100.00;100405.53;5147951;27;40776;-77
2022/11/13 08:07:33;;;;;;;6.82;3.92;;;10.70;38.50;;;11.54;100.00;100413.28;5147901;27;42738;-78
2022/11/13 08:10:20;;;;;;;8.98;3.72;;;10.60;45.20;;;11.68;100.00;100414.16;5147574;27;41570;-78
2022/11/13 08:13:08;;;;;;;;;;;10.70;46.90;;;11.85;100.00;100425.28;5148136;27;40680;-76
2022/11/13 08:15:58;;;;;;;9.90;3.67;;;10.70;46.30;;;11.85;100.00;100419.03;5132196;27;38741;-77
2022/11/13 08:18:47;;;;;;;7.82;4.20;;;10.70;46.40;;;11.92;100.00;100421.38;5147385;27;42679;-78
2022/11/13 08:21:36;;;;;;;11.00;4.03;;;10.70;47.40;;;11.88;100.00;100413.00;5146454;27;41250;-77
2022/11/13 08:24:22;;;;;;;7.50;2.85;;;10.80;36.00;;;12.23;99.79;100414.34;5146700;27;41055;-77
2022/11/13 08:27:10;;;;;;;7.85;3.53;;;10.90;25.90;;;12.08;99.45;100406.44;5147703;27;41276;-76
2022/11/13 08:29:56;;;;;;;7.53;3.20;;;10.90;18.20;;;12.29;97.78;100427.84;5150394;27;41724;-77
2022/11/13 08:32:44;;;;;;;8.82;3.30;;;11.00;12.90;;;12.21;97.43;100427.41;5147357;27;41366;-77
2022/11/13 08:35:32;;;;;;;9.25;3.55;;;11.00;4.10;;;12.21;97.46;100416.53;5147301;27;40333;-77
2022/11/13 08:38:19;;;;;;;8.20;3.20;;;11.10;1.00;;;12.16;97.49;100411.19;5147608;27;41092;-78
2022/11/13 08:41:07;;;;;;;6.20;2.65;;;11.10;1.00;;;12.28;96.69;100428.94;5147056;27;42696;-78
2022/11/13 08:43:55;;;;;;;6.72;2.88;;;11.20;1.00;;;12.52;94.44;100426.84;5151110;27;20087;-77
2022/11/13 08:46:42;;;;;;;5.07;2.65;;;11.30;1.00;;;12.34;92.87;100417.69;5146951;27;40160;-77
2022/11/13 08:49:29;;;;;;;6.78;3.38;;;11.30;1.00;;;12.28;94.29;100431.66;5147086;27;40229;-77
2022/11/13 08:52:17;;;;;;;8.38;3.22;;;11.30;1.00;;;12.69;91.21;100430.91;5145895;27;41905;-77
2022/11/13 08:55:06;;;;;;;8.77;2.88;;;11.40;1.00;;;12.73;90.72;100437.34;5146919;27;41677;-76
2022/11/13 08:57:53;;;;;;;7.70;3.28;;;11.50;1.00;;;12.65;91.01;100440.78;5147123;27;40532;-77
2022/11/13 09:00:40;;;;;;;7.57;3.03;;;11.40;1.00;;;12.78;90.81;100434.53;5147266;27;39934;-79
2022/11/13 09:03:28;;;;;;;6.30;2.95;;;11.50;1.00;;;12.97;88.77;100436.34;5146527;27;42493;-77
2022/11/13 09:06:15;;;;;;;6.97;3.35;;;11.60;1.00;;;13.13;88.00;100435.72;5146661;27;41980;-78
2022/11/13 09:09:06;;;;;;;6.80;3.25;;;11.60;1.00;;;13.13;87.51;100443.06;5146904;27;40979;-78
2022/11/13 09:11:52;;;;;;;6.13;2.70;;;11.70;1.00;;;12.84;87.85;100444.22;5148159;27;40457;-75
2022/11/13 09:14:39;;;;;;;8.45;3.00;;;11.70;1.00;;;13.09;86.67;100433.91;5146169;27;42676;-76
2022/11/13 09:17:26;;;;;;;8.30;3.63;;;11.80;1.00;;;13.16;85.69;100439.72;5145096;27;41571;-78
2022/11/13 09:20:14;;;;;;;7.65;2.92;;;11.80;1.00;;;13.07;85.99;100444.28;5144776;27;42016;-78
2022/11/13 09:23:02;;;;;;;;;;;11.80;1.00;;;12.95;86.71;100442.88;5145359;27;42071;-78
2022/11/13 09:25:50;;;;;;;7.65;3.17;;;11.90;1.00;;;12.98;86.21;100443.38;5146513;27;41969;-75
2022/11/13 09:28:37;;;;;;;7.35;3.47;;;11.90;1.00;;;12.98;85.76;100444.22;5146568;27;41943;-77
2022/11/13 09:31:24;;;;;;;6.25;2.65;;;11.90;1.00;;;13.10;85.00;100449.13;5146282;27;40326;-78
2022/11/13 09:34:11;;;;;;;7.60;3.35;;;11.90;1.00;;;13.18;84.73;100440.22;5148568;27;40852;-76
2022/11/13 09:36:58;;;;;;;8.10;3.42;;;11.90;1.00;;;13.19;84.79;100444.56;5149969;27;41725;-75
2022/11/13 09:39:45;;;;;;;6.13;2.40;;;12.00;1.00;;;13.54;82.53;100444.94;5151959;27;41470;-78
2022/11/13 09:42:38;;;;;;;7.38;2.50;;;12.20;1.00;;;13.13;83.62;100446.59;5150151;27;41023;-76
2022/11/13 09:45:25;;;;;;;6.93;3.38;;;12.10;1.00;;;13.18;84.23;100431.25;5134219;27;39389;-76
2022/11/13 09:48:25;;;;;;;8.23;2.60;;;12.00;1.00;;;13.04;82.78;100439.44;5149330;27;41545;-79
2022/11/13 09:51:16;;;;;;;6.88;3.05;;;12.00;1.00;;;13.26;82.69;100434.06;5150003;27;42317;-79
2022/11/13 09:54:09;;;;;;;7.00;2.70;;;12.10;1.00;;;13.29;82.38;100433.44;5150050;27;41003;-80
2022/11/13 09:57:10;;;;;;;5.45;2.70;;;12.20;1.00;;;13.39;81.20;100434.38;5149323;27;40041;-77
2022/11/13 10:00:04;;;;;;;10.25;2.25;;;12.20;1.00;;;13.52;80.78;100433.50;5149196;27;42108;-77
2022/11/13 10:03:20;;;;;;;5.63;2.40;;;12.20;1.00;;;13.90;77.88;100433.16;5149236;27;41902;-77
2022/11/13 10:06:16;;;;;;;9.80;2.50;;;12.40;1.00;;;14.26;76.50;100437.69;5149311;27;40286;-77
2022/11/13 10:09:14;;;;;;;8.98;3.03;;;12.50;1.00;;;14.44;73.05;100430.38;5149382;27;39912;-78
2022/11/13 10:12:04;;;;;;;;;;;12.60;1.00;;;14.33;68.13;100437.25;5149736;27;42080;-77
2022/11/13 10:14:55;;;;;;;8.90;3.03;;;12.60;1.00;;;14.39;68.69;100425.84;5149153;27;41645;-74
2022/11/13 10:17:51;;;;;;;6.90;2.78;;;12.70;1.00;;;14.33;69.01;100427.13;5148634;27;41835;-77
2022/11/13 10:20:47;;;;;;;4.82;2.78;;;12.80;1.00;;;14.09;67.79;100440.34;5149159;27;41005;-78
2022/11/13 10:23:37;;;;;;;6.63;3.75;;;12.70;1.00;;;13.78;69.53;100435.63;5149119;27;42550;-80
2022/11/13 10:26:28;;;;;;;8.43;2.92;;;12.60;1.00;;;13.62;69.82;100436.00;5149279;27;41378;-79
2022/11/13 10:29:18;;;;;;;7.45;2.50;;;12.60;1.00;;;13.57;70.83;100430.66;5149028;27;40612;-76
2022/11/13 10:32:19;;;;;;;7.05;3.08;;;12.50;1.00;;;13.58;69.66;100435.00;5149065;27;40270;-77
2022/11/13 10:35:31;;;;;;;6.22;2.50;;;12.60;1.00;;;13.35;68.05;100449.72;5148559;27;42551;-77
2022/11/13 10:38:28;;;;;;;4.45;1.95;;;12.50;1.00;;;13.27;68.83;100426.69;5133293;27;40140;-77
2022/11/13 10:41:18;;;;;;;6.03;2.15;;;12.40;1.00;;;13.30;69.35;100421.41;5148922;27;40263;-76
2022/11/13 10:44:08;;;;;;;6.70;2.90;;;12.40;1.00;;;13.60;66.99;100442.88;5148923;27;40141;-77
2022/11/13 10:47:06;;;;;;;6.28;3.03;;;12.50;1.00;;;13.83;67.60;100424.59;5148241;27;42749;-79
2022/11/13 10:49:55;;;;;;;8.85;4.35;;;12.60;1.00;;;13.78;66.28;100438.38;5148270;27;42177;-77
2022/11/13 10:52:50;;;;;;;4.82;2.03;;;12.60;1.00;;;13.50;67.70;100433.00;5148873;27;41061;-80
2022/11/13 10:55:41;;;;;;;5.40;1.95;;;12.50;1.00;;;13.30;70.09;100424.13;5148828;27;39791;-78
2022/11/13 10:58:28;;;;;;;4.63;2.45;;;12.50;1.00;;;13.39;69.20;100428.91;5148698;27;42831;-75
2022/11/13 11:01:21;;;;;;;6.80;2.30;;;12.40;1.00;;;13.59;68.44;100430.38;5148751;27;41229;-78
2022/11/13 11:04:14;;;;;;;6.40;2.45;;;12.50;1.00;;;13.59;70.00;100420.25;5148500;27;40921;-79
2022/11/13 11:07:12;;;;;;;7.53;3.15;;;12.60;1.00;;;13.37;68.84;100439.28;5148581;27;41115;-75
2022/11/13 11:10:00;;;;;;;;;;;12.50;1.00;;;13.47;70.59;100430.91;5133266;27;40551;-76
2022/11/13 11:12:53;;;;;;;5.93;2.42;;;12.60;1.00;;;13.47;70.01;100439.06;5151253;27;41360;-77
2022/11/13 11:15:48;;;;;;;5.10;2.30;;;12.60;1.00;;;14.51;66.88;100435.41;5147721;27;41450;-76
2022/11/13 11:18:39;;;;;;;5.72;2.50;;;13.00;1.00;;;14.51;65.98;100438.13;5148369;27;41825;-77
2022/11/13 11:21:30;;;;;;;5.28;2.40;;;13.20;1.00;;;13.86;67.34;100445.78;5148366;27;42489;-76
2022/11/13 11:24:24;;;;;;;7.38;3.75;;;12.90;1.00;;;13.61;65.79;100449.94;5148131;27;41253;-79
2022/11/13 11:27:21;;;;;;;6.63;2.85;;;12.70;1.00;;;13.47;64.80;100447.25;5148045;27;40341;-79
2022/11/13 11:30:21;;;;;;;7.25;2.50;;;12.70;1.00;;;13.58;64.89;100445.91;5132047;27;39163;-77
2022/11/13 11:33:17;;;;;;;3.20;1.75;;;12.70;1.00;;;13.22;64.67;100427.59;5147775;27;42691;-77
2022/11/13 11:36:22;;;;;;;4.70;2.10;;;12.50;1.00;;;12.88;66.63;100445.19;5147963;27;41957;-80
2022/11/13 11:39:27;;;;;;;5.20;1.70;;;12.30;1.00;;;12.67;67.19;100444.81;5149054;27;40274;-76
2022/11/13 11:42:28;;;;;;;4.45;2.00;;;12.20;1.00;;;12.68;67.97;100445.63;5147766;27;40076;-80